Accueil
METAR-TAF:

METAR-TAF

Aéroports :

Bridgeport Municipal Airport

Bridgeport, Texas, États-Unis

latitude: 33-10-31N, longitude: 097-49-42W, altitude: 260 m

Observation

Le bulletin a été fait il y a 8 minutes, à 17:35 UTC
Vent calme
Température 24°C
Humidité 69%
Pression 1018 hPa
Visibilité: 16.1 km
Nuages épars à une hauteur de 1900 ft
Nuages épars à une hauteur de 12000 ft

METAR: KXBP 201735Z AUTO 00000KT 10SM SCT019 SCT120 24/18 A3005 RMK AO2 LTG DSNT SE T02390177

Heure: 12:43 (17:43 UTC)


TAF: absent

Observations et prévisions météorologiques de plus de 4000 aéroports (messages METAR et TAF).

Les stations disponibles sont représentées par des disques jaunes et rouges sur la carte.

Passer la souris dessus pour voir le nom de la station.

Cliquer dessus pour voir les observations et prévisions météorologiques.

Pour changer de carte: cliquez sur les boutons verts avec une croix noire pour zoomer, sur le bouton vert avec un tiret pour effectuer un zoom arrière, ou sur les flèches vertes pour les cartes adjacentes.


METAR-TAF: